Walla Walla, WA

2:51 AM PST on November 27, 2014 (GMT -0800)
Whitman | Change Station
CLOSE
Current Station
Personal Weather Station
Location: Walla Walla, WA
Elevation: 994 ft
Nearby Weather Stations
Active Advisory: Special Statement Active Notice: Record Report

Elev 994 ft 46.07 °N, 118.33 °W | Updated 3 minutes ago

Overcast
Overcast
57.3 °F
Feels Like 57.3 °F
N
0.0
Wind Variable Wind from South
Gusts 4.0 mph

Today
High -- | Low -- °F
--% Chance of Precip.
Yesterday
High -- | Low -- °F
Precip. -- in
7:10 AM 4:11 PM
Waxing Crescent, 28% visible
Pressure 29.96 in
Visibility 10.0 miles
Clouds Overcast 10000 ft
Dew Point 41 °F
Humidity 55%
Rainfall 0.00 in
Snow Depth Not available.
UV 0 out of 12
Pollen 1.30 out of 12
Air Quality Not available.
Flu Activity Not available.
METAR KALW 270953Z AUTO 00000KT 10SM OVC100 12/04 A2996 RMK AO2 SLP146 T01170044

More Conditions Fewer Conditions

Pressure 29.96 in
Visibility 10.0 miles
Clouds Overcast 10000 ft
Dew Point 41 °F
Humidity 55%
Rainfall 0.00 in
Snow Depth Not available.
UV 0 out of 12
Pollen 1.30 out of 12
Air Quality Not available.
Flu Activity Not available.
METAR KALW 270953Z AUTO 00000KT 10SM OVC100 12/04 A2996 RMK AO2 SLP146 T01170044

More Conditions Fewer Conditions

10-Day Weather Forecast

Almanac

Astronomy

Nov. 27, 2014 Rise Set
Actual Time
Civil Twilight
Nautical Twilight
Astronomical Twilight
Moon
Length of Visible Light
Length of Day
Tomorrow will be .
, % of the Moon is Illuminated

Today's Extremes

State Highs State Lows

Community

WunderPhotos

Upload Photos

1,773,968 photos uploaded!

WunderBlogs® & News

Nearby

Air Quality

  Air Quality AQ Index Pollutant
Not available.

Snow Depth

Station Depth Elevation

Earthquake Activity

City Distance Mag. Time & Date
Minimum magnitude displayed is 2.5.

Coastal Water Temperatures

Place Temperature

Nearby Weather Stations